createdAt,value
2017-03-19T00:02:19.991Z,950.19
2017-03-19T00:07:22.737Z,950.22
2017-03-19T00:08:23.072Z,950.36
2017-03-19T00:09:22.821Z,950.24
2017-03-19T00:14:25.631Z,950.28
2017-03-19T00:15:25.402Z,950.36
2017-03-19T00:16:23.581Z,950.43
2017-03-19T00:22:24.062Z,950.34
2017-03-19T00:26:19.882Z,950.48
2017-03-19T00:27:24.793Z,950.40
2017-03-19T00:30:22.539Z,950.36
2017-03-19T00:31:25.379Z,950.34
2017-03-19T00:34:24.720Z,950.36
2017-03-19T00:36:23.531Z,950.42
2017-03-19T00:41:22.274Z,950.41
2017-03-19T00:44:20.441Z,950.36
2017-03-19T00:45:30.446Z,950.28
2017-03-19T00:46:23.417Z,950.25
2017-03-19T00:49:25.111Z,950.26
2017-03-19T00:53:25.063Z,950.19
2017-03-19T00:55:28.363Z,950.19
2017-03-19T00:59:24.704Z,950.35
2017-03-19T01:02:24.750Z,950.42
2017-03-19T01:09:20.629Z,950.50
2017-03-19T01:15:27.237Z,950.42
2017-03-19T01:21:26.699Z,950.32
2017-03-19T01:22:24.298Z,950.31
2017-03-19T01:23:22.949Z,950.34
2017-03-19T01:25:25.215Z,950.31
2017-03-19T01:26:23.931Z,950.35
2017-03-19T01:29:24.687Z,950.30
2017-03-19T01:30:23.675Z,950.32
2017-03-19T01:31:37.712Z,950.30
2017-03-19T01:35:25.102Z,950.36
2017-03-19T01:36:28.166Z,950.32
2017-03-19T01:37:23.741Z,950.27
2017-03-19T01:38:29.102Z,950.30
2017-03-19T01:39:24.171Z,950.42
2017-03-19T01:40:20.213Z,950.36
2017-03-19T01:43:24.122Z,950.37
2017-03-19T01:45:22.734Z,950.34
2017-03-19T01:46:26.098Z,950.39
2017-03-19T01:47:31.201Z,950.41
2017-03-19T01:48:19.964Z,950.34
2017-03-19T01:49:24.465Z,950.42
2017-03-19T01:50:19.282Z,950.40
2017-03-19T01:51:23.614Z,950.46
2017-03-19T01:52:24.227Z,950.40
2017-03-19T01:53:25.159Z,950.38
2017-03-19T01:54:19.305Z,950.33
2017-03-19T01:57:23.683Z,950.36
2017-03-19T01:58:23.686Z,950.30
2017-03-19T01:59:24.038Z,950.27
2017-03-19T02:01:25.950Z,950.24
2017-03-19T02:04:24.293Z,950.21
2017-03-19T02:05:34.429Z,950.21
2017-03-19T02:06:25.559Z,950.17
2017-03-19T02:10:23.281Z,950.30
2017-03-19T02:12:23.723Z,950.20
2017-03-19T02:13:23.887Z,950.27
2017-03-19T02:14:23.296Z,950.16
2017-03-19T02:15:23.604Z,950.18
2017-03-19T02:21:20.336Z,950.08
2017-03-19T02:22:20.984Z,950.07
2017-03-19T02:24:24.900Z,950.06
2017-03-19T02:25:20.034Z,950.07
2017-03-19T02:31:21.789Z,950.08
2017-03-19T02:32:24.176Z,950.05
2017-03-19T02:33:30.040Z,950.08
2017-03-19T02:34:22.149Z,950.08
2017-03-19T02:35:22.648Z,950.07
2017-03-19T02:42:25.271Z,950.09
2017-03-19T02:49:26.054Z,950.20
2017-03-19T02:50:25.161Z,950.18
2017-03-19T02:51:22.577Z,950.20
2017-03-19T03:00:28.919Z,950.28
2017-03-19T03:01:22.891Z,950.29
2017-03-19T03:02:24.924Z,950.28
2017-03-19T03:06:25.250Z,950.39
2017-03-19T03:07:32.294Z,950.28
2017-03-19T03:08:25.233Z,950.43
2017-03-19T03:09:20.122Z,950.38
2017-03-19T03:10:29.565Z,950.39
2017-03-19T03:28:18.930Z,950.58
2017-03-19T03:29:25.095Z,950.58
2017-03-19T03:32:24.167Z,950.66
2017-03-19T03:40:26.061Z,950.61
2017-03-19T03:41:21.640Z,950.61
2017-03-19T03:55:24.980Z,950.68
2017-03-19T03:56:22.579Z,950.68
2017-03-19T03:57:24.942Z,950.73
2017-03-19T03:58:19.262Z,950.67
2017-03-19T04:00:24.852Z,950.59
2017-03-19T04:01:24.955Z,950.74
2017-03-19T04:05:25.537Z,950.60
2017-03-19T04:06:26.234Z,950.67
2017-03-19T04:12:25.489Z,950.60
2017-03-19T04:14:19.291Z,950.65
2017-03-19T04:22:31.687Z,950.65
2017-03-19T04:27:24.530Z,950.65
2017-03-19T04:28:18.715Z,950.65
2017-03-19T04:32:22.713Z,950.69
2017-03-19T04:33:24.933Z,950.72
2017-03-19T04:34:23.913Z,950.69
2017-03-19T04:35:24.842Z,950.73
2017-03-19T04:36:26.384Z,950.77
2017-03-19T04:38:27.905Z,950.77
2017-03-19T04:41:24.601Z,950.64
2017-03-19T04:42:30.317Z,950.76
2017-03-19T04:45:30.745Z,950.77
2017-03-19T04:46:25.522Z,950.71
2017-03-19T04:47:27.270Z,950.81
2017-03-19T04:48:19.166Z,950.75
2017-03-19T04:55:23.281Z,950.73
2017-03-19T04:56:25.795Z,950.84
2017-03-19T04:57:25.092Z,950.72
2017-03-19T04:59:21.895Z,950.79
2017-03-19T05:00:27.594Z,950.68
2017-03-19T05:02:25.681Z,950.77
2017-03-19T05:03:23.331Z,950.80
2017-03-19T05:04:25.026Z,950.88
2017-03-19T05:05:24.433Z,950.82
2017-03-19T05:06:27.968Z,950.76
2017-03-19T05:07:33.251Z,950.80
2017-03-19T05:08:24.273Z,950.85
2017-03-19T05:09:18.621Z,950.86
2017-03-19T05:18:24.364Z,951.09
2017-03-19T05:24:25.543Z,951.08
2017-03-19T05:25:33.563Z,951.09
2017-03-19T05:28:24.492Z,951.11
2017-03-19T05:29:24.902Z,951.12
2017-03-19T05:30:32.494Z,951.23
2017-03-19T05:31:25.684Z,951.19
2017-03-19T05:33:21.409Z,951.25
2017-03-19T05:37:31.933Z,951.21
2017-03-19T05:38:18.087Z,951.18
2017-03-19T05:40:24.085Z,951.18
2017-03-19T05:41:23.960Z,951.15
2017-03-19T05:44:24.078Z,951.07
2017-03-19T05:46:24.388Z,951.11
2017-03-19T05:47:24.406Z,951.04
2017-03-19T05:48:24.516Z,951.03
2017-03-19T05:49:28.081Z,951.01
2017-03-19T05:50:24.584Z,951.00
2017-03-19T05:51:31.570Z,951.02
2017-03-19T05:53:26.833Z,951.00
2017-03-19T05:54:27.022Z,951.03
2017-03-19T05:57:23.692Z,951.01
2017-03-19T05:59:26.436Z,951.11
2017-03-19T06:03:25.310Z,951.17
2017-03-19T06:06:24.094Z,951.16
2017-03-19T06:11:25.002Z,951.31
2017-03-19T06:12:24.232Z,951.17
2017-03-19T06:13:25.281Z,951.17
2017-03-19T06:17:24.813Z,951.25
2017-03-19T06:18:22.210Z,951.30
2017-03-19T06:19:20.613Z,951.31
2017-03-19T06:20:17.910Z,951.29
2017-03-19T06:21:30.358Z,951.32
2017-03-19T06:22:26.387Z,951.36
2017-03-19T06:27:30.760Z,951.29
2017-03-19T06:28:25.288Z,951.28
2017-03-19T06:29:25.284Z,951.33
2017-03-19T06:30:28.432Z,951.34
2017-03-19T06:31:22.825Z,951.36
2017-03-19T06:32:22.663Z,951.27
2017-03-19T06:40:25.243Z,951.40
2017-03-19T06:41:30.369Z,951.43
2017-03-19T06:42:18.347Z,951.36
2017-03-19T06:43:28.257Z,951.41
2017-03-19T06:44:24.476Z,951.43
2017-03-19T06:45:23.422Z,951.41
2017-03-19T06:46:32.108Z,951.40
2017-03-19T06:51:25.579Z,951.37
2017-03-19T06:52:19.411Z,951.36
2017-03-19T06:53:26.542Z,951.40
2017-03-19T06:54:24.646Z,951.41
2017-03-19T06:55:25.564Z,951.39
2017-03-19T06:56:25.089Z,951.42
2017-03-19T07:08:19.292Z,951.59
2017-03-19T07:09:30.846Z,951.47
2017-03-19T07:11:22.355Z,951.45
2017-03-19T07:12:17.390Z,951.48
2017-03-19T07:14:25.283Z,951.47
2017-03-19T07:15:23.087Z,951.47
2017-03-19T07:16:30.322Z,951.55
2017-03-19T07:25:25.586Z,951.55
2017-03-19T07:26:18.503Z,951.56
2017-03-19T07:27:29.955Z,951.65
2017-03-19T07:32:30.271Z,951.55
2017-03-19T07:33:24.629Z,951.56
2017-03-19T07:34:25.270Z,951.66
2017-03-19T07:36:26.169Z,951.61
2017-03-19T07:37:24.835Z,951.53
2017-03-19T07:40:35.586Z,951.49
2017-03-19T07:43:25.038Z,951.42
2017-03-19T07:44:26.053Z,951.46
2017-03-19T07:54:18.895Z,951.58
2017-03-19T07:56:24.878Z,951.56
2017-03-19T07:57:25.341Z,951.56
2017-03-19T08:04:25.353Z,951.59
2017-03-19T08:05:21.195Z,951.57
2017-03-19T08:07:22.588Z,951.65
2017-03-19T08:08:24.041Z,951.62
2017-03-19T08:14:25.365Z,951.77
2017-03-19T08:15:34.504Z,951.58
2017-03-19T08:25:19.945Z,951.73
2017-03-19T08:26:15.736Z,951.79
2017-03-19T08:27:20.110Z,951.80
2017-03-19T08:28:27.154Z,951.78
2017-03-19T08:29:23.422Z,951.77
2017-03-19T08:30:24.476Z,951.86
2017-03-19T08:33:19.991Z,951.82
2017-03-19T08:34:19.403Z,951.88
2017-03-19T08:35:17.092Z,951.82
2017-03-19T08:36:28.343Z,951.81
2017-03-19T08:38:25.393Z,951.79
2017-03-19T08:39:25.377Z,951.73
2017-03-19T08:40:24.028Z,951.75
2017-03-19T08:42:26.358Z,951.74
2017-03-19T08:48:28.341Z,951.71
2017-03-19T08:49:25.380Z,951.66
2017-03-19T08:50:22.350Z,951.57
2017-03-19T08:51:19.880Z,951.64
2017-03-19T08:52:17.507Z,951.53
2017-03-19T08:54:25.707Z,951.62
2017-03-19T08:55:23.820Z,951.51
2017-03-19T08:56:32.660Z,951.55
2017-03-19T08:57:26.362Z,951.64
2017-03-19T08:58:37.979Z,951.56
2017-03-19T09:06:24.747Z,951.62
2017-03-19T09:07:18.890Z,951.45
2017-03-19T09:10:22.987Z,951.49
2017-03-19T09:11:27.148Z,951.55
2017-03-19T09:12:29.867Z,951.54
2017-03-19T09:13:19.449Z,951.59
2017-03-19T09:15:19.145Z,951.56
2017-03-19T09:18:25.313Z,951.59
2017-03-19T09:19:21.119Z,951.57
2017-03-19T09:20:24.403Z,951.60
2017-03-19T09:21:25.547Z,951.53
2017-03-19T09:22:25.108Z,951.60
2017-03-19T09:25:35.032Z,951.55
2017-03-19T09:26:19.247Z,951.50
2017-03-19T09:28:25.354Z,951.53
2017-03-19T09:30:24.568Z,951.61
2017-03-19T09:34:24.701Z,951.54
2017-03-19T09:36:25.133Z,951.45
2017-03-19T09:37:23.621Z,951.45
2017-03-19T09:38:18.564Z,951.37
2017-03-19T09:42:25.407Z,951.55
2017-03-19T09:43:33.177Z,951.47
2017-03-19T09:44:22.394Z,951.47
2017-03-19T09:46:25.663Z,951.41
2017-03-19T09:47:19.745Z,951.49
2017-03-19T09:48:22.589Z,951.49
2017-03-19T09:49:32.676Z,951.35
2017-03-19T09:50:17.803Z,951.32
2017-03-19T09:53:19.596Z,951.26
2017-03-19T09:54:23.429Z,951.29
2017-03-19T09:55:24.631Z,951.29
2017-03-19T09:56:24.326Z,951.36
2017-03-19T09:57:19.329Z,951.32
2017-03-19T09:58:25.696Z,951.33
2017-03-19T09:59:25.147Z,951.33
2017-03-19T10:02:14.332Z,951.31
2017-03-19T10:03:17.664Z,951.29
2017-03-19T10:04:14.968Z,951.33
2017-03-19T10:05:15.021Z,951.22
2017-03-19T10:06:19.490Z,951.31
2017-03-19T10:08:57.662Z,951.28
2017-03-19T10:09:20.790Z,951.34
2017-03-19T10:10:30.728Z,951.31
2017-03-19T10:11:18.253Z,951.30
2017-03-19T10:12:18.047Z,951.31
2017-03-19T10:15:24.719Z,951.31
2017-03-19T10:17:18.137Z,951.25
2017-03-19T10:18:25.264Z,951.30
2017-03-19T10:19:22.308Z,951.35
2017-03-19T10:20:22.569Z,951.30
2017-03-19T10:21:19.229Z,951.24
2017-03-19T10:22:24.928Z,951.31
2017-03-19T10:23:25.605Z,951.36
2017-03-19T10:24:29.690Z,951.22
2017-03-19T10:25:18.417Z,951.37
2017-03-19T10:26:24.627Z,951.37
2017-03-19T10:27:31.316Z,951.34
2017-03-19T10:28:24.685Z,951.32
2017-03-19T10:29:25.224Z,951.25
2017-03-19T10:33:24.918Z,951.25
2017-03-19T10:35:26.006Z,951.26
2017-03-19T10:36:23.593Z,951.28
2017-03-19T10:37:32.315Z,951.20
2017-03-19T10:38:25.735Z,951.30
2017-03-19T10:39:19.273Z,951.26
2017-03-19T10:40:25.219Z,951.20
2017-03-19T10:41:25.537Z,951.10
2017-03-19T10:42:25.869Z,951.16
2017-03-19T10:43:19.623Z,951.16
2017-03-19T10:50:21.979Z,951.20
2017-03-19T10:52:23.483Z,951.14
2017-03-19T10:53:25.788Z,951.06
2017-03-19T10:54:22.642Z,951.08
2017-03-19T10:55:23.313Z,951.13
2017-03-19T10:57:19.394Z,951.12
2017-03-19T10:58:19.974Z,951.08
2017-03-19T10:59:30.774Z,951.12
2017-03-19T11:02:29.460Z,951.07
2017-03-19T11:04:28.974Z,951.02
2017-03-19T11:05:30.972Z,951.06
2017-03-19T11:06:18.110Z,950.99
2017-03-19T11:08:17.777Z,950.98
2017-03-19T11:09:25.591Z,950.96
2017-03-19T11:10:24.730Z,951.01
2017-03-19T11:12:38.442Z,951.06
2017-03-19T11:13:25.578Z,950.96
2017-03-19T11:14:18.379Z,951.09
2017-03-19T11:15:19.573Z,951.11
2017-03-19T11:16:23.792Z,951.06
2017-03-19T11:17:22.454Z,951.13
2017-03-19T11:18:31.375Z,951.11
2017-03-19T11:19:18.006Z,951.08
2017-03-19T11:20:30.970Z,951.10
2017-03-19T11:21:22.007Z,951.23
2017-03-19T11:22:23.153Z,951.04
2017-03-19T11:23:32.974Z,951.16
2017-03-19T11:24:30.063Z,951.10
2017-03-19T11:27:24.525Z,951.25
2017-03-19T11:28:22.817Z,951.12
2017-03-19T11:29:23.267Z,951.12
2017-03-19T11:33:24.043Z,951.12
2017-03-19T11:34:25.020Z,951.20
2017-03-19T11:37:17.290Z,951.14
2017-03-19T11:38:24.658Z,951.18
2017-03-19T11:39:24.106Z,951.08
2017-03-19T11:42:25.780Z,951.09
2017-03-19T11:43:24.424Z,951.10
2017-03-19T11:44:33.905Z,951.06
2017-03-19T11:45:31.279Z,951.19
2017-03-19T11:46:25.007Z,951.10
2017-03-19T11:47:29.282Z,951.14
2017-03-19T11:48:25.627Z,951.13
2017-03-19T11:49:25.630Z,951.13
2017-03-19T11:50:36.773Z,951.09
2017-03-19T11:51:25.947Z,951.17
2017-03-19T11:52:25.119Z,951.08
2017-03-19T11:54:24.524Z,951.10
2017-03-19T11:55:17.714Z,951.06
2017-03-19T11:56:28.201Z,951.07
2017-03-19T11:58:25.188Z,951.12
2017-03-19T11:59:30.236Z,951.08
2017-03-19T12:00:17.959Z,951.05
2017-03-19T12:01:33.523Z,951.04
2017-03-19T12:02:24.496Z,950.99
2017-03-19T12:03:28.248Z,951.11
2017-03-19T12:06:25.245Z,951.08
2017-03-19T12:07:33.263Z,951.07
2017-03-19T12:08:22.619Z,951.02
2017-03-19T12:09:24.757Z,950.95
2017-03-19T12:10:24.246Z,951.03
2017-03-19T12:11:18.334Z,950.92
2017-03-19T12:13:19.778Z,950.90
2017-03-19T12:14:24.554Z,950.96
2017-03-19T12:15:22.011Z,950.97
2017-03-19T12:16:26.337Z,950.88
2017-03-19T12:17:17.870Z,950.89
2017-03-19T12:18:17.974Z,950.92
2017-03-19T12:19:27.727Z,950.92
2017-03-19T12:20:23.873Z,950.94
2017-03-19T12:21:17.366Z,950.85
2017-03-19T12:22:22.301Z,950.79
2017-03-19T12:23:28.712Z,950.88
2017-03-19T12:24:18.249Z,950.76
2017-03-19T12:25:19.020Z,950.95
2017-03-19T12:26:28.741Z,950.83
2017-03-19T12:27:24.386Z,950.78
2017-03-19T12:28:29.587Z,950.78
2017-03-19T12:29:24.597Z,950.81
2017-03-19T12:30:28.298Z,950.74
2017-03-19T12:31:33.282Z,950.73
2017-03-19T12:32:23.474Z,950.72
2017-03-19T12:33:30.769Z,950.71
2017-03-19T12:34:34.319Z,950.85
2017-03-19T12:35:24.584Z,950.63
2017-03-19T12:37:29.367Z,950.74
2017-03-19T12:38:24.911Z,950.64
2017-03-19T12:39:32.308Z,950.67
2017-03-19T12:40:33.085Z,950.68
2017-03-19T12:43:24.559Z,950.58
2017-03-19T12:44:28.579Z,950.56
2017-03-19T12:45:24.936Z,950.62
2017-03-19T12:46:30.576Z,950.55
2017-03-19T12:47:45.062Z,950.53
2017-03-19T12:51:35.237Z,950.47
2017-03-19T12:53:26.937Z,950.46
2017-03-19T12:54:17.744Z,950.50
2017-03-19T12:56:30.402Z,950.50
2017-03-19T12:57:28.314Z,950.48
2017-03-19T12:58:34.978Z,950.46
2017-03-19T12:59:29.797Z,950.47
2017-03-19T13:00:24.618Z,950.47
2017-03-19T13:01:36.317Z,950.50
2017-03-19T13:02:23.418Z,950.51
2017-03-19T13:03:24.848Z,950.53
2017-03-19T13:04:24.907Z,950.51
2017-03-19T13:05:24.647Z,950.55
2017-03-19T13:07:25.847Z,950.49
2017-03-19T13:09:25.525Z,950.50
2017-03-19T13:10:25.569Z,950.42
2017-03-19T13:11:24.948Z,950.44
2017-03-19T13:12:24.665Z,950.47
2017-03-19T13:13:24.772Z,950.44
2017-03-19T13:17:29.554Z,950.47
2017-03-19T13:18:25.435Z,950.48
2017-03-19T13:20:24.665Z,950.47
2017-03-19T13:21:43.937Z,950.52
2017-03-19T13:22:20.049Z,950.53
2017-03-19T13:23:16.198Z,950.51
2017-03-19T13:25:23.904Z,950.46
2017-03-19T13:26:25.318Z,950.47
2017-03-19T13:29:25.254Z,950.45
2017-03-19T13:32:19.153Z,950.42
2017-03-19T13:33:26.334Z,950.43
2017-03-19T13:34:30.746Z,950.44
2017-03-19T13:35:24.806Z,950.44
2017-03-19T13:37:25.706Z,950.45
2017-03-19T13:38:24.598Z,950.39
2017-03-19T13:39:38.697Z,950.44
2017-03-19T13:40:20.172Z,950.46
2017-03-19T13:41:23.382Z,950.30
2017-03-19T13:42:32.649Z,950.51
2017-03-19T13:43:19.801Z,950.53
2017-03-19T13:44:21.269Z,950.50
2017-03-19T13:45:29.305Z,950.50
2017-03-19T13:46:29.926Z,950.45
2017-03-19T13:48:33.296Z,950.54
2017-03-19T13:49:25.522Z,950.57
2017-03-19T13:50:24.592Z,950.60
2017-03-19T13:51:32.623Z,950.54
2017-03-19T13:52:24.585Z,950.52
2017-03-19T13:53:19.666Z,950.49
2017-03-19T13:56:31.237Z,950.51
2017-03-19T13:57:33.561Z,950.45
2017-03-19T13:58:25.496Z,950.57
2017-03-19T13:59:24.877Z,950.61
2017-03-19T14:01:25.084Z,950.54
2017-03-19T14:02:24.809Z,950.67
2017-03-19T14:03:29.713Z,950.56
2017-03-19T14:04:23.048Z,950.60
2017-03-19T14:06:26.263Z,950.55
2017-03-19T14:07:30.068Z,950.66
2017-03-19T14:08:24.643Z,950.62
2017-03-19T14:09:25.111Z,950.58
2017-03-19T14:10:40.975Z,950.62
2017-03-19T14:13:25.087Z,950.51
2017-03-19T14:14:23.475Z,950.52
2017-03-19T14:15:25.546Z,950.53
2017-03-19T14:17:20.234Z,950.48
2017-03-19T14:19:25.046Z,950.41
2017-03-19T14:20:24.190Z,950.36
2017-03-19T14:21:24.726Z,950.44
2017-03-19T14:22:19.855Z,950.41
2017-03-19T14:23:25.282Z,950.43
2017-03-19T14:24:24.520Z,950.47
2017-03-19T14:27:36.097Z,950.41
2017-03-19T14:28:31.950Z,950.43
2017-03-19T14:29:24.828Z,950.43
2017-03-19T14:32:30.345Z,950.43
2017-03-19T14:33:24.797Z,950.39
2017-03-19T14:34:24.878Z,950.38
2017-03-19T14:35:17.789Z,950.36
2017-03-19T14:37:26.270Z,950.44
2017-03-19T14:38:24.140Z,950.38
2017-03-19T14:40:28.444Z,950.27
2017-03-19T14:41:24.745Z,950.21
2017-03-19T14:42:26.829Z,950.30
2017-03-19T14:43:24.026Z,950.33
2017-03-19T14:44:28.718Z,950.27
2017-03-19T14:46:18.789Z,950.31
2017-03-19T14:47:25.248Z,950.28
2017-03-19T14:49:25.891Z,950.37
2017-03-19T14:51:25.378Z,950.29
2017-03-19T14:55:15.722Z,950.20
2017-03-19T14:56:28.807Z,950.23
2017-03-19T14:57:22.894Z,950.24
2017-03-19T14:58:20.053Z,950.29
2017-03-19T15:01:33.154Z,950.24
2017-03-19T15:02:32.028Z,950.25
2017-03-19T15:06:36.098Z,950.13
2017-03-19T15:07:27.465Z,950.10
2017-03-19T15:08:29.846Z,950.07
2017-03-19T15:09:25.628Z,950.12
2017-03-19T15:10:16.350Z,950.13
2017-03-19T15:11:25.327Z,950.08
2017-03-19T15:13:25.036Z,950.06
2017-03-19T15:15:25.577Z,950.04
2017-03-19T15:17:25.748Z,950.00
2017-03-19T15:18:17.951Z,950.00
2017-03-19T15:19:31.497Z,949.96
2017-03-19T15:20:26.691Z,949.97
2017-03-19T15:21:26.205Z,950.03
2017-03-19T15:22:35.365Z,950.01
2017-03-19T15:23:25.546Z,949.97
2017-03-19T15:24:25.124Z,949.99
2017-03-19T15:25:20.359Z,950.00
2017-03-19T15:26:25.874Z,949.93
2017-03-19T15:27:25.498Z,950.00
2017-03-19T15:28:25.199Z,949.98
2017-03-19T15:29:23.681Z,950.07
2017-03-19T15:30:23.792Z,950.08
2017-03-19T15:33:25.051Z,950.05
2017-03-19T15:34:25.190Z,950.07
2017-03-19T15:38:25.054Z,950.05
2017-03-19T15:40:32.247Z,949.98
2017-03-19T15:41:25.809Z,950.04
2017-03-19T15:42:23.530Z,950.06
2017-03-19T15:43:18.256Z,950.04
2017-03-19T15:44:27.901Z,950.01
2017-03-19T15:46:24.561Z,949.99
2017-03-19T15:47:24.844Z,950.01
2017-03-19T15:48:26.183Z,949.96
2017-03-19T15:53:24.938Z,949.95
2017-03-19T15:56:22.046Z,949.98
2017-03-19T15:57:19.256Z,949.94
2017-03-19T15:58:23.369Z,949.95
2017-03-19T15:59:24.553Z,949.94
2017-03-19T16:01:17.691Z,949.91
2017-03-19T16:02:25.871Z,949.96
2017-03-19T16:03:30.049Z,949.96
2017-03-19T16:05:25.602Z,950.01
2017-03-19T16:06:25.230Z,949.92
2017-03-19T16:07:17.659Z,949.94
2017-03-19T16:08:17.349Z,949.96
2017-03-19T16:09:30.620Z,950.00
2017-03-19T16:10:28.876Z,949.96
2017-03-19T16:11:25.254Z,949.94
2017-03-19T16:12:24.863Z,949.96
2017-03-19T16:14:25.266Z,949.89
2017-03-19T16:16:25.165Z,949.90
2017-03-19T16:19:32.569Z,949.83
2017-03-19T16:20:27.900Z,949.87
2017-03-19T16:26:32.569Z,949.90
2017-03-19T16:27:22.570Z,949.83
2017-03-19T16:28:30.580Z,949.87
2017-03-19T16:29:25.630Z,949.90
2017-03-19T16:30:23.640Z,949.88
2017-03-19T16:31:23.161Z,949.92
2017-03-19T16:34:33.955Z,949.96
2017-03-19T16:36:24.676Z,949.91
2017-03-19T16:37:24.575Z,949.87
2017-03-19T16:38:25.921Z,949.91
2017-03-19T16:39:24.581Z,949.89
2017-03-19T16:40:27.645Z,949.93
2017-03-19T16:41:22.278Z,949.81
2017-03-19T16:42:25.197Z,949.82
2017-03-19T16:43:24.744Z,949.83
2017-03-19T16:45:23.183Z,949.82
2017-03-19T16:46:26.071Z,949.85
2017-03-19T16:47:24.941Z,949.87
2017-03-19T16:48:30.671Z,949.85
2017-03-19T16:49:20.268Z,949.83
2017-03-19T16:50:26.333Z,949.81
2017-03-19T16:51:18.511Z,949.74
2017-03-19T16:52:20.196Z,949.78
2017-03-19T16:53:25.990Z,949.74
2017-03-19T16:56:19.938Z,949.82
2017-03-19T16:57:24.601Z,949.74
2017-03-19T16:58:32.941Z,949.76
2017-03-19T16:59:20.154Z,949.76
2017-03-19T17:00:18.160Z,949.82
2017-03-19T17:01:30.849Z,949.83
2017-03-19T17:03:24.861Z,949.83
2017-03-19T17:04:26.574Z,949.85
2017-03-19T17:05:22.874Z,949.82
2017-03-19T17:06:24.712Z,949.87
2017-03-19T17:07:23.336Z,949.88
2017-03-19T17:08:24.628Z,949.95
2017-03-19T17:09:18.597Z,949.88
2017-03-19T17:10:24.989Z,949.93
2017-03-19T17:11:25.248Z,949.90
2017-03-19T17:12:38.007Z,949.88
2017-03-19T17:13:23.928Z,949.87
2017-03-19T17:15:25.012Z,949.88
2017-03-19T17:16:35.729Z,949.91
2017-03-19T17:17:33.388Z,949.92
2017-03-19T17:18:24.509Z,949.90
2017-03-19T17:20:23.355Z,949.87
2017-03-19T17:21:19.956Z,949.94
2017-03-19T17:24:25.735Z,949.97
2017-03-19T17:25:24.649Z,949.87
2017-03-19T17:26:24.482Z,949.82
2017-03-19T17:27:23.550Z,949.89
2017-03-19T17:28:26.161Z,949.86
2017-03-19T17:29:26.437Z,949.91
2017-03-19T17:30:13.429Z,949.88
2017-03-19T17:31:18.266Z,949.87
2017-03-19T17:32:11.340Z,949.90
2017-03-19T17:33:33.807Z,949.90
2017-03-19T17:34:38.289Z,949.85
2017-03-19T17:37:29.998Z,949.77
2017-03-19T17:38:28.906Z,949.87
2017-03-19T17:39:24.547Z,949.88
2017-03-19T17:40:19.913Z,949.86
2017-03-19T17:41:25.584Z,949.88
2017-03-19T17:42:25.177Z,949.95
2017-03-19T17:43:26.381Z,949.86
2017-03-19T17:44:24.491Z,949.87
2017-03-19T17:45:28.590Z,949.88
2017-03-19T17:46:25.251Z,949.92
2017-03-19T17:47:31.347Z,949.93
2017-03-19T17:48:18.644Z,949.88
2017-03-19T17:50:25.004Z,949.93
2017-03-19T17:51:30.811Z,949.92
2017-03-19T17:52:32.433Z,949.85
2017-03-19T17:53:22.616Z,949.86
2017-03-19T17:54:30.318Z,949.93
2017-03-19T17:55:39.433Z,949.81
2017-03-19T17:56:32.602Z,949.85
2017-03-19T17:57:33.566Z,949.81
2017-03-19T17:59:40.856Z,949.80
2017-03-19T18:00:34.624Z,949.81
2017-03-19T18:02:24.091Z,949.83
2017-03-19T18:03:19.980Z,949.95
2017-03-19T18:04:24.795Z,949.94
2017-03-19T18:05:24.845Z,949.89
2017-03-19T18:06:34.354Z,949.93
2017-03-19T18:07:24.607Z,949.96
2017-03-19T18:08:27.498Z,949.99
2017-03-19T18:09:29.580Z,949.94
2017-03-19T18:10:26.089Z,950.01
2017-03-19T18:11:15.221Z,949.97
2017-03-19T18:12:25.075Z,949.98
2017-03-19T18:13:18.306Z,950.05
2017-03-19T18:14:24.892Z,949.97
2017-03-19T18:15:23.094Z,949.95
2017-03-19T18:16:17.437Z,949.94
2017-03-19T18:17:25.577Z,949.91
2017-03-19T18:18:25.282Z,950.00
2017-03-19T18:19:18.281Z,949.92
2017-03-19T18:20:30.753Z,949.96
2017-03-19T18:21:27.315Z,949.92
2017-03-19T18:22:18.529Z,949.85
2017-03-19T18:23:23.781Z,949.84
2017-03-19T18:24:31.003Z,949.86
2017-03-19T18:25:30.575Z,949.76
2017-03-19T18:26:24.502Z,949.76
2017-03-19T18:27:17.558Z,949.78
2017-03-19T18:28:25.234Z,949.66
2017-03-19T18:29:26.209Z,949.67
2017-03-19T18:30:25.443Z,949.64
2017-03-19T18:31:25.437Z,949.67
2017-03-19T18:32:17.913Z,949.60
2017-03-19T18:33:24.778Z,949.63
2017-03-19T18:34:26.902Z,949.72
2017-03-19T18:35:25.577Z,949.65
2017-03-19T18:36:26.359Z,949.63
2017-03-19T18:37:25.469Z,949.65
2017-03-19T18:38:25.077Z,949.61
2017-03-19T18:39:25.180Z,949.61
2017-03-19T18:40:27.309Z,949.64
2017-03-19T18:41:23.845Z,949.63
2017-03-19T18:42:26.888Z,949.60
2017-03-19T18:43:27.618Z,949.63
2017-03-19T18:44:26.358Z,949.64
2017-03-19T18:45:24.305Z,949.53
2017-03-19T18:46:25.084Z,949.58
2017-03-19T18:47:30.266Z,949.50
2017-03-19T18:48:29.776Z,949.58
2017-03-19T18:49:25.117Z,949.56
2017-03-19T18:50:23.448Z,949.63
2017-03-19T18:51:23.573Z,949.68
2017-03-19T18:52:18.601Z,949.77
2017-03-19T18:53:32.765Z,949.90
2017-03-19T18:54:23.718Z,949.93
2017-03-19T18:55:23.590Z,949.99
2017-03-19T18:56:25.372Z,950.00
2017-03-19T18:57:19.323Z,949.96
2017-03-19T18:58:25.092Z,949.97
2017-03-19T18:59:26.202Z,949.89
2017-03-19T19:00:25.189Z,949.95
2017-03-19T19:01:26.304Z,949.89
2017-03-19T19:02:26.700Z,949.95
2017-03-19T19:03:25.307Z,949.92
2017-03-19T19:04:25.779Z,949.93
2017-03-19T19:05:23.406Z,949.99
2017-03-19T19:06:25.864Z,949.98
2017-03-19T19:07:23.441Z,949.99
2017-03-19T19:08:31.263Z,950.01
2017-03-19T19:09:22.073Z,949.99
2017-03-19T19:11:38.318Z,950.04
2017-03-19T19:12:33.109Z,950.09
2017-03-19T19:13:24.522Z,950.12
2017-03-19T19:14:36.033Z,950.10
2017-03-19T19:15:25.334Z,950.08
2017-03-19T19:16:24.818Z,950.11
2017-03-19T19:17:38.769Z,950.09
2017-03-19T19:18:23.176Z,950.12
2017-03-19T19:19:40.506Z,950.11
2017-03-19T19:20:25.908Z,950.13
2017-03-19T19:21:28.698Z,950.03
2017-03-19T19:22:30.197Z,949.96
2017-03-19T19:23:25.070Z,949.98
2017-03-19T19:24:25.155Z,949.94
2017-03-19T19:25:30.152Z,949.90
2017-03-19T19:26:26.107Z,949.86
2017-03-19T19:27:27.244Z,949.83
2017-03-19T19:28:24.475Z,949.81
2017-03-19T19:29:19.636Z,949.83
2017-03-19T19:30:30.271Z,949.83
2017-03-19T19:31:24.681Z,949.78
2017-03-19T19:32:24.605Z,949.79
2017-03-19T19:33:17.677Z,949.80
2017-03-19T19:34:25.893Z,949.84
2017-03-19T19:35:25.111Z,949.83
2017-03-19T19:36:31.115Z,949.82
2017-03-19T19:37:34.133Z,949.84
2017-03-19T19:38:31.034Z,949.82
2017-03-19T19:39:19.340Z,949.89
2017-03-19T19:40:28.164Z,949.85
2017-03-19T19:41:24.201Z,949.87
2017-03-19T19:43:25.366Z,949.83
2017-03-19T19:44:24.975Z,949.87
2017-03-19T19:45:24.765Z,949.84
2017-03-19T19:46:24.416Z,949.84
2017-03-19T19:47:37.185Z,949.84
2017-03-19T19:48:19.941Z,949.86
2017-03-19T19:49:20.356Z,949.92
2017-03-19T19:50:25.361Z,949.88
2017-03-19T19:51:24.178Z,949.92
2017-03-19T19:52:20.240Z,950.01
2017-03-19T19:55:25.083Z,949.99
2017-03-19T19:56:24.928Z,950.01
2017-03-19T19:57:26.237Z,949.99
2017-03-19T19:58:23.981Z,949.98
2017-03-19T19:59:24.797Z,950.06
2017-03-19T20:00:25.622Z,950.02
2017-03-19T20:01:20.168Z,950.05
2017-03-19T20:02:24.710Z,950.09
2017-03-19T20:03:19.800Z,950.03
2017-03-19T20:04:25.264Z,950.02
2017-03-19T20:05:24.619Z,949.97
2017-03-19T20:06:20.484Z,950.02
2017-03-19T20:07:24.857Z,949.99
2017-03-19T20:08:26.000Z,950.03
2017-03-19T20:09:30.902Z,950.01
2017-03-19T20:10:20.435Z,950.01
2017-03-19T20:11:38.916Z,950.03
2017-03-19T20:12:23.241Z,950.01
2017-03-19T20:13:27.576Z,950.03